createdAt,value
2023-04-16T00:01:41.042Z,100.00
2023-04-16T00:04:09.034Z,100.00
2023-04-16T00:06:37.339Z,100.00
2023-04-16T00:09:05.436Z,100.00
2023-04-16T00:11:33.283Z,100.00
2023-04-16T00:14:01.382Z,100.00
2023-04-16T00:16:29.414Z,100.00
2023-04-16T00:18:57.307Z,100.00
2023-04-16T00:21:25.287Z,100.00
2023-04-16T00:23:53.841Z,100.00
2023-04-16T00:26:21.726Z,100.00
2023-04-16T00:28:49.579Z,100.00
2023-04-16T00:31:17.572Z,100.00
2023-04-16T00:33:45.473Z,100.00
2023-04-16T00:36:13.359Z,100.00
2023-04-16T00:38:41.402Z,100.00
2023-04-16T00:41:09.339Z,100.00
2023-04-16T00:43:37.593Z,100.00
2023-04-16T00:46:08.849Z,100.00
2023-04-16T00:48:38.755Z,100.00
2023-04-16T00:51:08.773Z,100.00
2023-04-16T00:53:36.683Z,100.00
2023-04-16T00:56:07.433Z,100.00
2023-04-16T00:58:35.899Z,100.00
2023-04-16T01:01:04.012Z,100.00
2023-04-16T01:03:39.789Z,100.00
2023-04-16T01:06:07.980Z,100.00
2023-04-16T01:08:35.967Z,100.00
2023-04-16T01:11:04.244Z,100.00
2023-04-16T01:13:33.841Z,100.00
2023-04-16T01:16:01.850Z,100.00
2023-04-16T01:18:29.746Z,100.00
2023-04-16T01:20:57.680Z,100.00
2023-04-16T01:23:26.032Z,100.00
2023-04-16T01:25:54.267Z,100.00
2023-04-16T01:28:23.069Z,100.00
2023-04-16T01:30:51.125Z,100.00
2023-04-16T01:33:41.696Z,100.00
2023-04-16T01:36:11.085Z,100.00
2023-04-16T01:38:39.150Z,100.00
2023-04-16T01:41:07.459Z,100.00
2023-04-16T01:43:38.425Z,100.00
2023-04-16T01:46:18.333Z,100.00
2023-04-16T01:48:47.334Z,100.00
2023-04-16T01:51:15.364Z,100.00
2023-04-16T01:53:43.256Z,100.00
2023-04-16T01:56:11.626Z,100.00
2023-04-16T01:58:39.974Z,100.00
2023-04-16T02:01:09.183Z,100.00
2023-04-16T02:03:39.112Z,100.00
2023-04-16T02:06:07.357Z,100.00
2023-04-16T02:08:37.094Z,100.00
2023-04-16T02:11:05.149Z,100.00
2023-04-16T02:13:33.375Z,100.00
2023-04-16T02:16:01.319Z,100.00
2023-04-16T02:18:46.165Z,100.00
2023-04-16T02:21:15.519Z,100.00
2023-04-16T02:23:47.597Z,100.00
2023-04-16T02:26:15.530Z,100.00
2023-04-16T02:28:44.181Z,100.00
2023-04-16T02:31:12.843Z,100.00
2023-04-16T02:33:44.562Z,100.00
2023-04-16T02:36:13.111Z,100.00
2023-04-16T02:38:41.263Z,100.00
2023-04-16T02:41:09.520Z,100.00
2023-04-16T02:43:37.595Z,100.00
2023-04-16T02:46:06.032Z,100.00
2023-04-16T02:48:34.051Z,100.00
2023-04-16T02:51:02.059Z,100.00
2023-04-16T02:53:29.892Z,100.00
2023-04-16T02:55:57.931Z,100.00
2023-04-16T02:58:26.741Z,100.00
2023-04-16T03:00:55.325Z,100.00
2023-04-16T03:03:23.785Z,100.00
2023-04-16T03:05:52.241Z,100.00
2023-04-16T03:08:20.226Z,100.00
2023-04-16T03:10:48.168Z,100.00
2023-04-16T03:13:16.366Z,100.00
2023-04-16T03:15:50.069Z,100.00
2023-04-16T03:18:18.356Z,100.00
2023-04-16T03:20:46.235Z,100.00
2023-04-16T03:23:14.262Z,100.00
2023-04-16T03:25:43.810Z,100.00
2023-04-16T03:28:12.108Z,100.00
2023-04-16T03:30:40.209Z,100.00
2023-04-16T03:33:09.068Z,100.00
2023-04-16T03:35:37.051Z,100.00
2023-04-16T03:38:05.002Z,100.00
2023-04-16T03:40:32.979Z,100.00
2023-04-16T03:43:01.121Z,100.00
2023-04-16T03:45:29.625Z,100.00
2023-04-16T03:47:58.121Z,100.00
2023-04-16T03:50:26.905Z,100.00
2023-04-16T03:52:54.926Z,100.00
2023-04-16T03:55:23.066Z,100.00
2023-04-16T03:57:51.063Z,100.00
2023-04-16T04:00:19.120Z,100.00
2023-04-16T04:02:58.552Z,100.00
2023-04-16T04:05:26.928Z,100.00
2023-04-16T04:07:54.847Z,100.00
2023-04-16T04:10:23.264Z,100.00
2023-04-16T04:12:51.622Z,100.00
2023-04-16T04:15:19.602Z,100.00
2023-04-16T04:17:48.514Z,100.00
2023-04-16T04:20:16.854Z,100.00
2023-04-16T04:22:46.090Z,100.00
2023-04-16T04:25:14.343Z,100.00
2023-04-16T04:27:43.125Z,100.00
2023-04-16T04:30:11.684Z,100.00
2023-04-16T04:32:40.049Z,100.00
2023-04-16T04:35:08.386Z,100.00
2023-04-16T04:37:37.040Z,100.00
2023-04-16T04:40:12.222Z,100.00
2023-04-16T04:42:40.139Z,100.00
2023-04-16T04:45:09.287Z,100.00
2023-04-16T04:47:37.435Z,100.00
2023-04-16T04:50:06.598Z,100.00
2023-04-16T04:52:35.084Z,100.00
2023-04-16T04:55:03.843Z,100.00
2023-04-16T04:57:32.016Z,100.00
2023-04-16T04:59:59.975Z,100.00
2023-04-16T05:02:28.774Z,100.00
2023-04-16T05:04:56.796Z,100.00
2023-04-16T05:07:24.857Z,100.00
2023-04-16T05:09:52.754Z,100.00
2023-04-16T05:12:20.882Z,100.00
2023-04-16T05:14:48.777Z,100.00
2023-04-16T05:17:16.699Z,100.00
2023-04-16T05:19:44.609Z,100.00
2023-04-16T05:22:12.814Z,100.00
2023-04-16T05:24:41.344Z,100.00
2023-04-16T05:27:09.697Z,100.00
2023-04-16T05:29:37.580Z,100.00
2023-04-16T05:32:05.830Z,100.00
2023-04-16T05:34:33.799Z,100.00
2023-04-16T05:37:01.705Z,100.00
2023-04-16T05:39:29.729Z,100.00
2023-04-16T05:41:57.549Z,100.00
2023-04-16T05:44:26.131Z,100.00
2023-04-16T05:46:54.107Z,100.00
2023-04-16T05:49:22.398Z,100.00
2023-04-16T05:51:51.056Z,100.00
2023-04-16T05:54:19.264Z,100.00
2023-04-16T05:56:47.293Z,100.00
2023-04-16T05:59:15.392Z,100.00
2023-04-16T06:01:43.276Z,100.00
2023-04-16T06:04:11.425Z,100.00
2023-04-16T06:06:40.418Z,100.00
2023-04-16T06:09:08.590Z,100.00
2023-04-16T06:11:36.839Z,100.00
2023-04-16T06:14:04.852Z,100.00
2023-04-16T06:16:32.906Z,100.00
2023-04-16T06:19:00.963Z,100.00
2023-04-16T06:21:29.979Z,100.00
2023-04-16T06:23:57.969Z,100.00
2023-04-16T06:26:26.032Z,100.00
2023-04-16T06:28:53.945Z,100.00
2023-04-16T06:31:22.024Z,100.00
2023-04-16T06:33:50.258Z,100.00
2023-04-16T06:36:18.359Z,100.00
2023-04-16T06:38:46.720Z,100.00
2023-04-16T06:41:15.099Z,100.00
2023-04-16T06:43:42.971Z,100.00
2023-04-16T06:46:11.568Z,100.00
2023-04-16T06:48:39.510Z,100.00
2023-04-16T06:51:07.537Z,100.00
2023-04-16T06:53:37.776Z,100.00
2023-04-16T06:56:06.421Z,100.00
2023-04-16T06:58:34.372Z,100.00
2023-04-16T07:01:02.939Z,100.00
2023-04-16T07:03:31.372Z,100.00
2023-04-16T07:05:59.618Z,100.00
2023-04-16T07:08:27.601Z,100.00
2023-04-16T07:10:55.956Z,100.00
2023-04-16T07:13:24.486Z,100.00
2023-04-16T07:15:52.380Z,100.00
2023-04-16T07:18:20.850Z,100.00
2023-04-16T07:20:49.402Z,100.00
2023-04-16T07:23:17.612Z,100.00
2023-04-16T07:25:46.011Z,100.00
2023-04-16T07:28:16.799Z,100.00
2023-04-16T07:30:45.603Z,100.00
2023-04-16T07:33:13.694Z,100.00
2023-04-16T07:35:41.712Z,100.00
2023-04-16T07:38:09.703Z,100.00
2023-04-16T07:40:37.752Z,100.00
2023-04-16T07:43:05.959Z,100.00
2023-04-16T07:45:34.079Z,100.00
2023-04-16T07:48:02.054Z,100.00
2023-04-16T07:50:30.124Z,100.00
2023-04-16T07:52:58.064Z,100.00
2023-04-16T07:55:25.874Z,100.00
2023-04-16T07:57:54.063Z,100.00
2023-04-16T08:00:21.873Z,100.00
2023-04-16T08:02:49.974Z,100.00
2023-04-16T08:05:18.348Z,100.00
2023-04-16T08:07:46.206Z,100.00
2023-04-16T08:10:14.245Z,100.00
2023-04-16T08:12:42.375Z,100.00
2023-04-16T08:15:10.508Z,100.00
2023-04-16T08:17:38.945Z,100.00
2023-04-16T08:20:07.772Z,100.00
2023-04-16T08:22:35.924Z,100.00
2023-04-16T08:25:04.659Z,100.00
2023-04-16T08:27:32.569Z,100.00
2023-04-16T08:30:00.470Z,100.00
2023-04-16T08:32:28.541Z,100.00
2023-04-16T08:34:57.515Z,100.00
2023-04-16T08:37:26.432Z,100.00
2023-04-16T08:39:54.550Z,100.00
2023-04-16T08:42:32.230Z,100.00
2023-04-16T08:45:11.370Z,100.00
2023-04-16T08:47:41.089Z,100.00
2023-04-16T08:50:12.338Z,100.00
2023-04-16T08:52:49.490Z,100.00
2023-04-16T08:55:19.912Z,100.00
2023-04-16T08:57:53.665Z,100.00
2023-04-16T09:00:22.112Z,100.00
2023-04-16T09:02:51.678Z,100.00
2023-04-16T09:05:22.991Z,100.00
2023-04-16T09:07:52.776Z,100.00
2023-04-16T09:10:21.341Z,100.00
2023-04-16T09:12:49.804Z,100.00
2023-04-16T09:15:20.753Z,100.00
2023-04-16T09:17:48.946Z,100.00
2023-04-16T09:20:17.092Z,100.00
2023-04-16T09:22:46.623Z,100.00
2023-04-16T09:25:15.083Z,100.00
2023-04-16T09:27:44.005Z,100.00
2023-04-16T09:30:27.291Z,100.00
2023-04-16T09:33:16.893Z,100.00
2023-04-16T09:35:47.662Z,100.00
2023-04-16T09:38:16.035Z,100.00
2023-04-16T09:40:44.251Z,100.00
2023-04-16T09:43:14.249Z,100.00
2023-04-16T09:45:51.015Z,100.00
2023-04-16T09:48:32.905Z,100.00
2023-04-16T09:51:01.380Z,100.00
2023-04-16T09:53:31.974Z,100.00
2023-04-16T09:56:01.758Z,100.00
2023-04-16T09:58:29.886Z,100.00
2023-04-16T10:01:02.553Z,98.50
2023-04-16T10:03:32.959Z,97.90
2023-04-16T10:06:07.317Z,99.17
2023-04-16T10:08:36.344Z,100.00
2023-04-16T10:11:04.661Z,99.65
2023-04-16T10:13:32.719Z,100.00
2023-04-16T10:16:00.790Z,100.00
2023-04-16T10:18:29.670Z,100.00
2023-04-16T10:20:57.810Z,100.00
2023-04-16T10:23:26.668Z,100.00
2023-04-16T10:25:57.394Z,100.00
2023-04-16T10:28:26.030Z,99.48
2023-04-16T10:30:56.427Z,94.05
2023-04-16T10:33:30.448Z,97.66
2023-04-16T10:36:12.756Z,100.00
2023-04-16T10:38:46.027Z,95.22
2023-04-16T10:41:14.265Z,88.07
2023-04-16T10:43:47.494Z,85.45
2023-04-16T10:46:24.549Z,88.75
2023-04-16T10:48:57.127Z,94.62
2023-04-16T10:51:29.487Z,82.42
2023-04-16T10:54:11.347Z,74.49
2023-04-16T10:56:39.283Z,79.21
2023-04-16T10:59:10.456Z,80.34
2023-04-16T11:01:46.778Z,73.83
2023-04-16T11:04:20.995Z,80.70
2023-04-16T11:07:14.089Z,81.28
2023-04-16T11:09:48.219Z,79.62
2023-04-16T11:12:27.891Z,79.53
2023-04-16T11:15:10.437Z,82.13
2023-04-16T11:17:43.476Z,81.19
2023-04-16T11:20:26.223Z,82.86
2023-04-16T11:22:56.245Z,85.36
2023-04-16T11:25:26.223Z,85.21
2023-04-16T11:27:54.933Z,84.16
2023-04-16T11:30:31.693Z,80.80
2023-04-16T11:33:02.245Z,79.91
2023-04-16T11:35:30.346Z,86.44
2023-04-16T11:37:58.795Z,83.61
2023-04-16T11:40:31.562Z,88.22
2023-04-16T11:43:18.004Z,80.57
2023-04-16T11:46:10.293Z,85.17
2023-04-16T11:48:52.904Z,86.55
2023-04-16T11:51:23.320Z,81.59
2023-04-16T11:53:53.436Z,76.83
2023-04-16T11:56:33.383Z,81.99
2023-04-16T11:59:08.820Z,77.89
2023-04-16T12:01:38.483Z,80.41
2023-04-16T12:04:07.468Z,76.01
2023-04-16T12:06:36.304Z,74.67
2023-04-16T12:09:27.459Z,79.39
2023-04-16T12:11:55.556Z,78.86
2023-04-16T12:14:24.000Z,77.47
2023-04-16T12:16:51.879Z,74.93
2023-04-16T12:19:19.933Z,71.49
2023-04-16T12:21:50.143Z,67.52
2023-04-16T12:24:24.276Z,69.85
2023-04-16T12:26:57.709Z,73.91
2023-04-16T12:29:28.161Z,70.70
2023-04-16T12:31:56.334Z,69.31
2023-04-16T12:34:29.003Z,74.69
2023-04-16T12:37:12.986Z,73.46
2023-04-16T12:39:41.483Z,71.57
2023-04-16T12:42:11.566Z,71.38
2023-04-16T12:44:39.558Z,67.72
2023-04-16T12:47:07.612Z,69.37
2023-04-16T12:49:37.078Z,71.39
2023-04-16T12:52:06.067Z,68.48
2023-04-16T12:54:34.243Z,68.85
2023-04-16T12:57:02.269Z,69.58
2023-04-16T12:59:30.147Z,65.88
2023-04-16T13:01:58.255Z,67.62
2023-04-16T13:04:26.902Z,67.44
2023-04-16T13:06:55.166Z,68.35
2023-04-16T13:09:23.415Z,66.21
2023-04-16T13:11:51.628Z,64.15
2023-04-16T13:14:21.182Z,61.51
2023-04-16T13:16:49.216Z,62.28
2023-04-16T13:19:19.202Z,57.81
2023-04-16T13:21:47.177Z,59.60
2023-04-16T13:24:15.085Z,64.20
2023-04-16T13:26:43.633Z,63.10
2023-04-16T13:29:11.911Z,63.98
2023-04-16T13:31:40.606Z,62.16
2023-04-16T13:34:08.529Z,61.58
2023-04-16T13:36:36.466Z,60.42
2023-04-16T13:39:05.399Z,73.01
2023-04-16T13:41:33.278Z,97.04
2023-04-16T13:44:01.174Z,100.00
2023-04-16T13:46:29.554Z,100.00
2023-04-16T13:48:57.823Z,100.00
2023-04-16T13:51:27.593Z,100.00
2023-04-16T13:53:56.422Z,100.00
2023-04-16T13:56:25.257Z,100.00
2023-04-16T13:58:53.481Z,100.00
2023-04-16T14:01:21.932Z,100.00
2023-04-16T14:03:50.505Z,100.00
2023-04-16T14:06:18.697Z,100.00
2023-04-16T14:08:46.662Z,100.00
2023-04-16T14:11:14.784Z,100.00
2023-04-16T14:13:42.868Z,100.00
2023-04-16T14:16:11.028Z,100.00
2023-04-16T14:18:42.442Z,100.00
2023-04-16T14:21:10.565Z,100.00
2023-04-16T14:23:38.530Z,100.00
2023-04-16T14:26:06.466Z,100.00
2023-04-16T14:28:35.693Z,100.00
2023-04-16T14:31:03.612Z,100.00
2023-04-16T14:33:32.483Z,100.00
2023-04-16T14:36:02.680Z,100.00
2023-04-16T14:38:32.178Z,100.00
2023-04-16T14:41:00.664Z,100.00
2023-04-16T14:43:28.734Z,100.00
2023-04-16T14:45:58.824Z,100.00
2023-04-16T14:48:27.045Z,100.00
2023-04-16T14:50:55.073Z,100.00
2023-04-16T14:53:24.837Z,100.00
2023-04-16T14:55:53.554Z,100.00
2023-04-16T14:58:22.141Z,100.00
2023-04-16T15:00:50.277Z,100.00
2023-04-16T15:03:18.333Z,100.00
2023-04-16T15:05:50.916Z,100.00
2023-04-16T15:08:18.847Z,100.00
2023-04-16T15:10:46.836Z,100.00
2023-04-16T15:13:14.844Z,100.00
2023-04-16T15:15:43.557Z,100.00
2023-04-16T15:18:11.709Z,100.00
2023-04-16T15:20:40.414Z,100.00
2023-04-16T15:23:08.290Z,100.00
2023-04-16T15:25:36.254Z,100.00
2023-04-16T15:28:04.282Z,100.00
2023-04-16T15:30:32.183Z,100.00
2023-04-16T15:33:00.127Z,100.00
2023-04-16T15:35:28.086Z,100.00
2023-04-16T15:37:55.993Z,100.00
2023-04-16T15:40:25.400Z,100.00
2023-04-16T15:42:56.223Z,100.00
2023-04-16T15:45:24.104Z,100.00
2023-04-16T15:47:52.311Z,100.00
2023-04-16T15:50:20.563Z,100.00
2023-04-16T15:52:49.423Z,100.00
2023-04-16T15:55:18.554Z,100.00
2023-04-16T15:57:46.561Z,100.00
2023-04-16T16:00:17.331Z,100.00
2023-04-16T16:02:47.207Z,100.00
2023-04-16T16:05:16.608Z,100.00
2023-04-16T16:07:44.709Z,100.00
2023-04-16T16:10:13.494Z,100.00
2023-04-16T16:12:41.655Z,100.00
2023-04-16T16:15:11.256Z,100.00
2023-04-16T16:17:40.743Z,100.00
2023-04-16T16:20:10.599Z,100.00
2023-04-16T16:22:39.195Z,100.00
2023-04-16T16:25:07.423Z,100.00
2023-04-16T16:27:36.560Z,100.00
2023-04-16T16:30:07.408Z,100.00
2023-04-16T16:32:36.044Z,100.00
2023-04-16T16:35:04.516Z,100.00
2023-04-16T16:37:32.651Z,100.00
2023-04-16T16:40:00.693Z,100.00
2023-04-16T16:42:28.770Z,100.00
2023-04-16T16:44:57.545Z,100.00
2023-04-16T16:47:27.093Z,100.00
2023-04-16T16:49:55.215Z,100.00
2023-04-16T16:52:24.374Z,100.00
2023-04-16T16:54:56.932Z,100.00
2023-04-16T16:57:25.124Z,100.00
2023-04-16T16:59:54.595Z,100.00
2023-04-16T17:02:23.363Z,100.00
2023-04-16T17:04:52.847Z,100.00
2023-04-16T17:07:21.098Z,100.00
2023-04-16T17:09:48.991Z,100.00
2023-04-16T17:12:16.934Z,100.00
2023-04-16T17:14:44.968Z,100.00
2023-04-16T17:17:12.866Z,100.00
2023-04-16T17:19:40.844Z,100.00
2023-04-16T17:22:08.775Z,100.00
2023-04-16T17:24:36.677Z,100.00
2023-04-16T17:27:04.647Z,100.00
2023-04-16T17:29:32.670Z,100.00
2023-04-16T17:32:01.058Z,100.00
2023-04-16T17:34:29.100Z,100.00
2023-04-16T17:36:56.953Z,100.00
2023-04-16T17:39:25.074Z,100.00
2023-04-16T17:41:54.914Z,100.00
2023-04-16T17:44:25.730Z,100.00
2023-04-16T17:46:53.682Z,100.00
2023-04-16T17:49:21.760Z,100.00
2023-04-16T17:51:49.740Z,100.00
2023-04-16T17:54:17.603Z,100.00
2023-04-16T17:56:46.362Z,100.00
2023-04-16T17:59:14.306Z,100.00
2023-04-16T18:01:42.400Z,100.00
2023-04-16T18:04:11.107Z,100.00
2023-04-16T18:06:39.581Z,100.00
2023-04-16T18:09:07.524Z,100.00
2023-04-16T18:11:35.988Z,100.00
2023-04-16T18:14:04.253Z,100.00
2023-04-16T18:16:32.372Z,100.00
2023-04-16T18:19:00.264Z,100.00
2023-04-16T18:21:29.805Z,100.00
2023-04-16T18:23:58.129Z,100.00
2023-04-16T18:26:26.088Z,100.00
2023-04-16T18:28:57.521Z,100.00
2023-04-16T18:31:25.868Z,100.00
2023-04-16T18:33:57.867Z,100.00
2023-04-16T18:36:27.572Z,100.00
2023-04-16T18:39:02.254Z,100.00
2023-04-16T18:41:31.456Z,100.00
2023-04-16T18:43:59.432Z,100.00
2023-04-16T18:46:27.816Z,100.00
2023-04-16T18:48:55.950Z,100.00
2023-04-16T18:51:24.110Z,100.00
2023-04-16T18:53:52.068Z,100.00
2023-04-16T18:56:20.145Z,100.00
2023-04-16T18:58:48.126Z,100.00
2023-04-16T19:01:16.756Z,100.00
2023-04-16T19:03:45.614Z,100.00
2023-04-16T19:06:13.643Z,100.00
2023-04-16T19:08:41.637Z,100.00
2023-04-16T19:11:09.595Z,100.00
2023-04-16T19:13:38.870Z,100.00
2023-04-16T19:16:11.586Z,100.00
2023-04-16T19:18:39.996Z,100.00
2023-04-16T19:21:10.150Z,100.00
2023-04-16T19:23:38.331Z,100.00
2023-04-16T19:26:06.521Z,100.00
2023-04-16T19:28:34.542Z,100.00
2023-04-16T19:31:02.626Z,100.00
2023-04-16T19:33:31.478Z,100.00
2023-04-16T19:36:00.419Z,100.00
2023-04-16T19:38:29.093Z,100.00
2023-04-16T19:40:56.984Z,100.00
2023-04-16T19:43:24.968Z,100.00
2023-04-16T19:45:54.289Z,100.00
2023-04-16T19:48:22.481Z,100.00
2023-04-16T19:50:50.553Z,100.00
2023-04-16T19:53:18.507Z,100.00
2023-04-16T19:55:46.977Z,100.00
2023-04-16T19:58:15.185Z,100.00
2023-04-16T20:00:43.587Z,100.00
2023-04-16T20:03:11.671Z,100.00
2023-04-16T20:05:39.631Z,100.00
2023-04-16T20:08:07.703Z,100.00
2023-04-16T20:10:36.153Z,100.00
2023-04-16T20:13:05.128Z,100.00
2023-04-16T20:15:33.161Z,100.00
2023-04-16T20:18:01.285Z,100.00
2023-04-16T20:20:29.306Z,100.00
2023-04-16T20:22:58.471Z,100.00
2023-04-16T20:25:26.675Z,100.00
2023-04-16T20:27:54.637Z,100.00
2023-04-16T20:30:24.558Z,100.00
2023-04-16T20:32:52.447Z,100.00
2023-04-16T20:35:20.545Z,100.00
2023-04-16T20:37:48.723Z,100.00
2023-04-16T20:40:16.805Z,100.00
2023-04-16T20:42:47.711Z,100.00
2023-04-16T20:45:16.180Z,100.00
2023-04-16T20:47:44.369Z,100.00
2023-04-16T20:50:12.398Z,100.00
2023-04-16T20:52:40.293Z,100.00
2023-04-16T20:55:08.836Z,100.00
2023-04-16T20:57:36.946Z,100.00
2023-04-16T21:00:09.232Z,100.00
2023-04-16T21:02:37.419Z,100.00
2023-04-16T21:05:09.147Z,100.00
2023-04-16T21:07:37.020Z,100.00
2023-04-16T21:10:05.373Z,100.00
2023-04-16T21:12:33.197Z,100.00
2023-04-16T21:15:01.252Z,100.00
2023-04-16T21:17:29.338Z,100.00
2023-04-16T21:19:57.488Z,100.00
2023-04-16T21:22:25.541Z,100.00
2023-04-16T21:24:53.415Z,100.00
2023-04-16T21:27:21.347Z,100.00
2023-04-16T21:29:49.335Z,100.00
2023-04-16T21:32:17.317Z,100.00
2023-04-16T21:34:45.201Z,100.00
2023-04-16T21:37:13.103Z,100.00
2023-04-16T21:39:41.006Z,100.00
2023-04-16T21:42:08.964Z,100.00
2023-04-16T21:44:36.836Z,100.00
2023-04-16T21:47:05.073Z,100.00
2023-04-16T21:49:33.259Z,100.00
2023-04-16T21:52:02.556Z,100.00
2023-04-16T21:54:30.614Z,100.00
2023-04-16T21:56:58.788Z,100.00
2023-04-16T21:59:26.709Z,100.00
2023-04-16T22:01:54.774Z,100.00
2023-04-16T22:04:26.524Z,100.00
2023-04-16T22:06:56.403Z,100.00
2023-04-16T22:09:27.190Z,100.00
2023-04-16T22:11:57.853Z,100.00
2023-04-16T22:14:26.105Z,100.00
2023-04-16T22:16:54.161Z,100.00
2023-04-16T22:19:22.323Z,100.00
2023-04-16T22:21:50.375Z,100.00
2023-04-16T22:24:18.531Z,100.00
2023-04-16T22:26:46.625Z,100.00
2023-04-16T22:29:14.739Z,100.00
2023-04-16T22:31:42.548Z,100.00
2023-04-16T22:34:10.433Z,100.00
2023-04-16T22:36:38.240Z,100.00
2023-04-16T22:39:08.780Z,100.00
2023-04-16T22:41:37.621Z,100.00
2023-04-16T22:44:05.604Z,100.00
2023-04-16T22:46:33.621Z,100.00
2023-04-16T22:49:01.508Z,100.00
2023-04-16T22:51:30.714Z,100.00
2023-04-16T22:53:58.720Z,100.00
2023-04-16T22:56:28.975Z,100.00
2023-04-16T22:58:57.410Z,100.00
2023-04-16T23:01:25.407Z,100.00
2023-04-16T23:03:53.461Z,100.00
2023-04-16T23:06:22.055Z,100.00
2023-04-16T23:08:50.095Z,100.00
2023-04-16T23:11:18.044Z,100.00
2023-04-16T23:13:46.437Z,100.00
2023-04-16T23:16:14.297Z,100.00
2023-04-16T23:18:42.427Z,100.00
2023-04-16T23:21:10.657Z,100.00
2023-04-16T23:23:38.560Z,100.00
2023-04-16T23:26:06.587Z,100.00
2023-04-16T23:28:34.761Z,100.00
2023-04-16T23:31:04.222Z,100.00
2023-04-16T23:33:34.184Z,100.00
2023-04-16T23:36:02.177Z,100.00
2023-04-16T23:38:30.132Z,100.00
2023-04-16T23:40:57.945Z,100.00
2023-04-16T23:43:25.939Z,100.00
2023-04-16T23:45:53.936Z,100.00
2023-04-16T23:48:22.079Z,100.00
2023-04-16T23:50:50.064Z,100.00
2023-04-16T23:53:18.033Z,100.00
2023-04-16T23:55:46.204Z,100.00
2023-04-16T23:58:14.107Z,100.00
